首页
METAR-TAF:

METAR-TAF

机场 :

Northwest Florida Regional Airport / Eglin Air Force Base

瓦尔帕莱索, 佛罗里达州, 美国

纬度: 30-29N, 经度: 086-31W, 海拔: 26米

当前天气观测

该预报发布于53分钟前的19:56 UTC
风速10节,风向
温度 31°C
湿度 49%
气压 1016 hPa
能見度: 16.1公里
少量云层高于6000英尺

METAR: KVPS 231956Z AUTO 18010KT 10SM FEW060 31/19 A3001 RMK AO2 SLP168 T03060186 $

时间: 15:49 (20:49 UTC)

预报

该预报发布于3小时和49分钟前的17:00 UTC
预报有效从23日的 17点(UTC)到 24日的 23点(UTC)
风速10节,风向,有时为15节阵风
能见度10公里或以上
散云层高于4000英尺
成为
从 23日的 23点(UTC)到 23日的 24点(UTC)
风速6节,风向北转西北
能見度: 2403
少量云层高于5000英尺
成为
从 24日的 13点(UTC)到 24日的 14点(UTC)
风速12节,风向南转西南
能見度: 2418
少量云层高于4000英尺

TAF: KVPS 231700Z 2317/2423 17010G15KT 9999 SCT040 QNH3003INS BECMG 2323/2324 17009KT 9999 FEW050 QNH2998INS WND 34006KT AFT 2403 BECMG 2413/2414 32009KT 9999 FEW040 QNH2995INS WND 20012KT AFT 2418 TX33/2418Z TN21/2411Z

超过4000个机场的气象观测和天气预报(METAR&TAF报告)。

可查询的气象台以黄色和红色小点在地图上表示。

将鼠标移到小点上方,可查看气象台名称。

然后点击查看天气观测和预报。

如需切换地图:点击带黑十字的绿色按钮放大地图;点击带横线的绿色按钮缩小地图;或者点击绿色箭头查看邻近地区的地图。


METAR-TAF: